Time;durP1;ratioP1;P1;durP2;ratioP2;P2;SDS_P1;SDS_P2;PMS_P1;PMS_P2;Temp;Humidity;BMP_temperature;BMP_pressure;BME280_temperature;BME280_humidity;BME280_pressure;Samples;Min_cycle;Max_cycle;Signal;HPM_P1;HPM_P2
2023/02/01 00:00:13;;;;;;;23.08;3.05;;;;;;;;;;6149374;23;20101;-60
2023/02/01 00:02:40;;;;;;;;;;;;;;;;;;6148991;23;20060;-61
2023/02/01 00:05:14;;;;;;;22.20;3.45;;;;;;;;;;6149181;23;20262;-61
2023/02/01 00:07:41;;;;;;;21.70;2.80;;;;;;;;;;6148829;23;20384;-61
2023/02/01 00:10:15;;;;;;;20.67;2.67;;;;;;;;;;6149358;23;20463;-61
2023/02/01 00:12:49;;;;;;;14.98;3.35;;;;;;;;;;6147633;23;20104;-61
2023/02/01 00:15:23;;;;;;;30.15;4.18;;;;;;;;;;6149593;23;20425;-61
2023/02/01 00:17:54;;;;;;;21.45;3.28;;;;;;;;;;6147631;23;20021;-61
2023/02/01 00:20:21;;;;;;;26.95;3.13;;;;;;;;;;6147640;23;20025;-71
2023/02/01 00:22:55;;;;;;;25.05;3.72;;;;;;;;;;6147761;23;20033;-59
2023/02/01 00:25:22;;;;;;;26.05;3.00;;;;;;;;;;6149339;23;20021;-54
2023/02/01 00:27:58;;;;;;;25.55;3.20;;;;;;;;;;6148871;23;20028;-57
2023/02/01 00:30:25;;;;;;;24.02;3.00;;;;;;;;;;6149913;23;20121;-58
2023/02/01 00:32:52;;;;;;;24.02;3.22;;;;;;;;;;6147909;23;20056;-59
2023/02/01 00:35:26;;;;;;;35.83;3.85;;;;;;;;;;6148742;23;20061;-59
2023/02/01 00:37:53;;;;;;;26.05;3.17;;;;;;;;;;6148708;23;20117;-57
2023/02/01 00:40:27;;;;;;;23.60;2.95;;;;;;;;;;6148852;23;20092;-71
2023/02/01 00:42:54;;;;;;;21.48;2.65;;;;;;;;;;6148978;23;20028;-67
2023/02/01 00:45:21;;;;;;;28.75;3.03;;;;;;;;;;6149350;23;20057;-66
2023/02/01 00:47:55;;;;;;;25.65;4.35;;;;;;;;;;6148743;23;20039;-66
2023/02/01 00:50:22;;;;;;;21.38;2.80;;;;;;;;;;6149268;23;20538;-66
2023/02/01 00:52:56;;;;;;;32.97;3.65;;;;;;;;;;6148100;23;20056;-66
2023/02/01 00:55:24;;;;;;;19.13;3.17;;;;;;;;;;6149160;23;20065;-66
2023/02/01 00:57:51;;;;;;;27.92;3.67;;;;;;;;;;6147657;23;20027;-59
2023/02/01 01:00:25;;;;;;;23.48;3.47;;;;;;;;;;6148867;23;20105;-62
2023/02/01 01:02:53;;;;;;;21.50;3.05;;;;;;;;;;6147811;23;20077;-66
2023/02/01 01:05:27;;;;;;;21.65;2.95;;;;;;;;;;6149081;23;20369;-66
2023/02/01 01:07:54;;;;;;;19.48;2.95;;;;;;;;;;6146950;23;20025;-65
2023/02/01 01:10:22;;;;;;;25.92;2.97;;;;;;;;;;6149510;23;20025;-66
2023/02/01 01:13:02;;;;;;;27.85;4.05;;;;;;;;;;6147426;23;20351;-66
2023/02/01 01:15:44;;;;;;;26.42;3.50;;;;;;;;;;6148035;23;20104;-66
2023/02/01 01:18:11;;;;;;;19.27;2.65;;;;;;;;;;6148309;23;20026;-71
2023/02/01 01:20:45;;;;;;;21.75;2.95;;;;;;;;;;6148362;23;20104;-51
2023/02/01 01:23:12;;;;;;;34.30;3.92;;;;;;;;;;6147566;23;20033;-55
2023/02/01 01:25:40;;;;;;;35.60;3.35;;;;;;;;;;6148142;23;20100;-56
2023/02/01 01:28:13;;;;;;;18.33;3.20;;;;;;;;;;6148550;23;20028;-56
2023/02/01 01:30:40;;;;;;;29.65;3.10;;;;;;;;;;6148351;23;20061;-52
2023/02/01 01:33:14;;;;;;;24.65;3.00;;;;;;;;;;6148740;23;20864;-53
2023/02/01 01:35:41;;;;;;;20.55;3.35;;;;;;;;;;6147662;23;20068;-62
2023/02/01 01:38:10;;;;;;;33.83;2.97;;;;;;;;;;6148318;23;20049;-66
2023/02/01 01:40:46;;;;;;;17.40;2.83;;;;;;;;;;6147887;23;20022;-62
2023/02/01 01:43:19;;;;;;;19.50;3.28;;;;;;;;;;6149575;23;20021;-62
2023/02/01 01:45:53;;;;;;;13.65;2.25;;;;;;;;;;6147756;23;20447;-61
2023/02/01 01:48:23;;;;;;;21.83;2.80;;;;;;;;;;6148118;23;20096;-62
2023/02/01 01:50:52;;;;;;;19.05;3.55;;;;;;;;;;6148111;23;20544;-63
2023/02/01 01:53:32;;;;;;;13.63;2.70;;;;;;;;;;6147326;23;20021;-62
2023/02/01 01:56:00;;;;;;;21.20;2.72;;;;;;;;;;6147614;23;20025;-59
2023/02/01 01:58:34;;;;;;;13.07;2.42;;;;;;;;;;6148831;23;20379;-61
2023/02/01 02:01:01;;;;;;;;;;;;;;;;;;6145672;23;20076;-62
2023/02/01 02:03:38;;;;;;;20.05;2.63;;;;;;;;;;6148695;23;19986;-62
2023/02/01 02:06:13;;;;;;;14.68;3.53;;;;;;;;;;6149195;23;20049;-62
2023/02/01 02:08:47;;;;;;;15.48;2.60;;;;;;;;;;6146667;23;20049;-62
2023/02/01 02:11:27;;;;;;;19.02;2.90;;;;;;;;;;6147398;23;20545;-62
2023/02/01 02:14:01;;;;;;;25.23;2.63;;;;;;;;;;6146980;23;20414;-66
2023/02/01 02:16:35;;;;;;;27.85;2.63;;;;;;;;;;6148655;23;20025;-59
2023/02/01 02:19:11;;;;;;;16.77;2.92;;;;;;;;;;6148062;23;20057;-59
2023/02/01 02:22:00;;;;;;;30.65;2.80;;;;;;;;;;6147144;23;20032;-57
2023/02/01 02:24:44;;;;;;;17.02;2.55;;;;;;;;;;6146510;23;20063;-58
2023/02/01 02:27:24;;;;;;;15.73;2.38;;;;;;;;;;6147321;23;20419;-59
2023/02/01 02:30:05;;;;;;;20.77;3.08;;;;;;;;;;6148143;23;20108;-59
2023/02/01 02:32:53;;;;;;;16.40;2.58;;;;;;;;;;6147442;23;20056;-55
2023/02/01 02:35:21;;;;;;;21.55;3.45;;;;;;;;;;6147175;23;20024;-66
2023/02/01 02:37:54;;;;;;;23.08;2.85;;;;;;;;;;6144838;23;20029;-61
2023/02/01 02:40:26;;;;;;;24.05;3.53;;;;;;;;;;6148476;23;20093;-61
2023/02/01 02:48:46;;;;;;;24.20;2.88;;;;;;;;;;6147993;23;20097;-62
2023/02/01 03:05:36;;;;;;;36.40;3.90;;;;;;;;;;6147671;23;20100;-73
2023/02/01 03:08:05;;;;;;;22.13;3.00;;;;;;;;;;6147377;23;20053;-72
2023/02/01 03:10:58;;;;;;;31.38;3.25;;;;;;;;;;6147985;23;20825;-59
2023/02/01 03:13:38;;;;;;;17.40;3.00;;;;;;;;;;6147774;23;20025;-59
2023/02/01 03:16:31;;;;;;;24.25;3.03;;;;;;;;;;6149531;23;20033;-58
2023/02/01 03:19:00;;;;;;;30.90;3.30;;;;;;;;;;6149332;23;20453;-52
2023/02/01 03:21:34;;;;;;;23.27;4.25;;;;;;;;;;6149843;23;20068;-55
2023/02/01 03:24:05;;;;;;;20.77;2.58;;;;;;;;;;6149442;23;20025;-56
2023/02/01 03:26:42;;;;;;;30.38;3.70;;;;;;;;;;6148924;23;20101;-57
2023/02/01 03:29:13;;;;;;;24.63;3.53;;;;;;;;;;6147528;23;20056;-66
2023/02/01 03:31:46;;;;;;;22.73;2.85;;;;;;;;;;6148999;23;20459;-55
2023/02/01 03:34:14;;;;;;;17.63;2.92;;;;;;;;;;6148582;23;20025;-65
2023/02/01 03:36:58;;;;;;;13.90;2.92;;;;;;;;;;6149517;23;20029;-66
2023/02/01 03:39:35;;;;;;;21.38;3.10;;;;;;;;;;6149925;23;20475;-66
2023/02/01 03:42:17;;;;;;;17.23;2.78;;;;;;;;;;6149234;23;20018;-67
2023/02/01 03:44:54;;;;;;;31.85;3.50;;;;;;;;;;6148907;23;20031;-66
2023/02/01 03:47:22;;;;;;;14.50;2.42;;;;;;;;;;6149673;23;20028;-65
2023/02/01 03:49:59;;;;;;;23.25;2.95;;;;;;;;;;6149549;23;20056;-59
2023/02/01 03:52:35;;;;;;;17.52;3.58;;;;;;;;;;6149864;23;20040;-53
2023/02/01 03:55:10;;;;;;;26.23;3.08;;;;;;;;;;6148970;23;20096;-50
2023/02/01 03:57:47;;;;;;;18.30;2.35;;;;;;;;;;6149972;23;20068;-51
2023/02/01 04:00:22;;;;;;;21.58;3.67;;;;;;;;;;6148358;23;20105;-54
2023/02/01 04:02:50;;;;;;;15.95;2.33;;;;;;;;;;6148735;23;20017;-56
2023/02/01 04:05:23;;;;;;;18.77;3.35;;;;;;;;;;6149354;23;20092;-56
2023/02/01 04:07:50;;;;;;;30.17;3.72;;;;;;;;;;6149195;23;20105;-66
2023/02/01 04:10:24;;;;;;;26.17;3.72;;;;;;;;;;6150465;23;20021;-73
2023/02/01 04:12:58;;;;;;;;;;;;;;;;;;6149015;23;20049;-57
2023/02/01 04:15:33;;;;;;;19.02;2.90;;;;;;;;;;6148820;23;19979;-52
2023/02/01 04:18:01;;;;;;;25.17;4.18;;;;;;;;;;6148752;23;20029;-53
2023/02/01 04:20:28;;;;;;;34.50;4.45;;;;;;;;;;6149612;23;20100;-57
2023/02/01 04:23:02;;;;;;;20.95;3.40;;;;;;;;;;6148444;23;20029;-54
2023/02/01 04:25:30;;;;;;;23.42;3.17;;;;;;;;;;6150584;23;20399;-57
2023/02/01 04:28:04;;;;;;;26.27;2.92;;;;;;;;;;6147262;23;20056;-66
2023/02/01 04:30:31;;;;;;;23.55;3.50;;;;;;;;;;6148890;23;20132;-61
2023/02/01 04:32:59;;;;;;;22.58;3.67;;;;;;;;;;6146561;23;20026;-63
2023/02/01 04:35:33;;;;;;;26.45;3.60;;;;;;;;;;6146992;23;20641;-61
2023/02/01 04:38:00;;;;;;;19.45;2.67;;;;;;;;;;6148778;23;20035;-61
2023/02/01 04:40:28;;;;;;;;;;;;;;;;;;6149446;23;20112;-61
2023/02/01 04:43:01;;;;;;;18.85;2.80;;;;;;;;;;6148121;23;20391;-61
2023/02/01 04:45:28;;;;;;;14.27;3.63;;;;;;;;;;6150056;23;20021;-60
2023/02/01 04:48:02;;;;;;;19.45;2.85;;;;;;;;;;6148223;23;20715;-65
2023/02/01 04:50:29;;;;;;;23.60;3.75;;;;;;;;;;6148088;23;20541;-55
2023/02/01 04:52:57;;;;;;;21.75;3.90;;;;;;;;;;6149228;23;20191;-56
2023/02/01 04:55:30;;;;;;;20.08;3.25;;;;;;;;;;6148789;23;20565;-54
2023/02/01 04:57:57;;;;;;;21.75;3.80;;;;;;;;;;6148099;23;20426;-57
2023/02/01 05:00:31;;;;;;;21.75;3.28;;;;;;;;;;6148469;23;20558;-55
2023/02/01 05:02:58;;;;;;;20.92;3.58;;;;;;;;;;6147246;23;20025;-60
2023/02/01 05:05:25;;;;;;;22.02;3.88;;;;;;;;;;6148696;23;20104;-53
2023/02/01 05:07:59;;;;;;;16.67;3.10;;;;;;;;;;6149133;23;20026;-72
2023/02/01 05:10:26;;;;;;;23.80;3.67;;;;;;;;;;6149205;23;20060;-72
2023/02/01 05:15:53;;;;;;;21.10;3.45;;;;;;;;;;6148473;23;20034;-72
2023/02/01 05:18:27;;;;;;;27.38;3.35;;;;;;;;;;6146518;23;20064;-72
2023/02/01 05:20:55;;;;;;;31.98;4.00;;;;;;;;;;6120634;23;20061;-72
2023/02/01 05:23:22;;;;;;;30.67;3.78;;;;;;;;;;6147012;23;20022;-51
2023/02/01 05:26:00;;;;;;;26.67;4.20;;;;;;;;;;6147682;23;20025;-58
2023/02/01 05:28:28;;;;;;;30.13;4.07;;;;;;;;;;6147278;23;20084;-65
2023/02/01 05:31:01;;;;;;;24.50;3.90;;;;;;;;;;6147138;23;20029;-66
2023/02/01 05:33:28;;;;;;;37.47;4.13;;;;;;;;;;6145293;23;20028;-65
2023/02/01 05:36:02;;;;;;;31.20;5.03;;;;;;;;;;6147163;23;20032;-65
2023/02/01 05:38:32;;;;;;;30.83;4.75;;;;;;;;;;6142864;23;20033;-66
2023/02/01 05:41:00;;;;;;;29.73;3.85;;;;;;;;;;6147807;23;20080;-65
2023/02/01 05:43:33;;;;;;;29.23;4.28;;;;;;;;;;6147165;23;20974;-62
2023/02/01 05:46:00;;;;;;;23.83;4.22;;;;;;;;;;6148194;23;20527;-53
2023/02/01 05:48:34;;;;;;;28.80;4.18;;;;;;;;;;6147513;23;20072;-53
2023/02/01 05:51:01;;;;;;;36.65;5.07;;;;;;;;;;6147270;23;20072;-52
2023/02/01 05:53:28;;;;;;;37.45;5.43;;;;;;;;;;6146895;23;20093;-57
2023/02/01 05:56:03;;;;;;;33.17;4.45;;;;;;;;;;6148781;23;20021;-52
2023/02/01 05:58:30;;;;;;;25.23;4.30;;;;;;;;;;6146490;23;20101;-56
2023/02/01 06:01:04;;;;;;;45.45;5.38;;;;;;;;;;6147481;23;20638;-50
2023/02/01 06:03:31;;;;;;;31.13;4.50;;;;;;;;;;6148169;23;20101;-55
2023/02/01 06:06:00;;;;;;;41.97;4.38;;;;;;;;;;6146896;23;20021;-65
2023/02/01 06:08:34;;;;;;;33.00;4.43;;;;;;;;;;6147343;23;20025;-64
2023/02/01 06:11:02;;;;;;;34.72;4.68;;;;;;;;;;6147615;23;20125;-65
2023/02/01 06:13:46;;;;;;;34.25;4.43;;;;;;;;;;6145522;23;20092;-68
2023/02/01 06:16:15;;;;;;;36.25;4.97;;;;;;;;;;6147907;23;20733;-65
2023/02/01 06:18:49;;;;;;;39.80;4.28;;;;;;;;;;6147109;23;20100;-66
2023/02/01 06:21:23;;;;;;;37.55;5.80;;;;;;;;;;6146985;23;20060;-56
2023/02/01 06:23:58;;;;;;;34.30;4.32;;;;;;;;;;6146294;23;20037;-59
2023/02/01 06:26:31;;;;;;;33.22;5.18;;;;;;;;;;6147058;23;20057;-72
2023/02/01 06:29:06;;;;;;;31.50;5.43;;;;;;;;;;6146129;23;20077;-72
2023/02/01 06:31:42;;;;;;;31.38;4.90;;;;;;;;;;6147314;23;20104;-72
2023/02/01 06:34:09;;;;;;;41.25;4.70;;;;;;;;;;6147378;23;20021;-72
2023/02/01 06:36:36;;;;;;;34.53;5.10;;;;;;;;;;6120507;23;20018;-72
2023/02/01 06:39:12;;;;;;;37.88;5.15;;;;;;;;;;6147724;23;20035;-72
2023/02/01 06:41:47;;;;;;;48.38;5.30;;;;;;;;;;6147216;23;20411;-55
2023/02/01 06:44:20;;;;;;;33.28;5.32;;;;;;;;;;6147792;23;20097;-72
2023/02/01 06:46:47;;;;;;;39.60;4.97;;;;;;;;;;6147122;23;20105;-72
2023/02/01 06:49:21;;;;;;;40.65;6.10;;;;;;;;;;6147193;23;20055;-71
2023/02/01 06:51:49;;;;;;;39.72;5.82;;;;;;;;;;6148431;23;20053;-73
2023/02/01 06:54:16;;;;;;;45.63;5.05;;;;;;;;;;6149383;23;20100;-72
2023/02/01 06:56:50;;;;;;;40.00;5.65;;;;;;;;;;6123406;23;20057;-72
2023/02/01 06:59:17;;;;;;;45.03;6.13;;;;;;;;;;6150040;23;20549;-52
2023/02/01 07:01:51;;;;;;;38.78;4.50;;;;;;;;;;6148439;23;20058;-52
2023/02/01 07:04:18;;;;;;;29.98;5.20;;;;;;;;;;6148260;23;20398;-56
2023/02/01 07:06:46;;;;;;;29.55;4.13;;;;;;;;;;6149952;23;20105;-55
2023/02/01 07:09:19;;;;;;;37.40;5.20;;;;;;;;;;6148063;23;20028;-57
2023/02/01 07:11:46;;;;;;;33.22;4.35;;;;;;;;;;6147892;23;20104;-58
2023/02/01 07:14:27;;;;;;;37.47;5.78;;;;;;;;;;6116849;23;20026;-56
2023/02/01 07:16:54;;;;;;;29.33;4.45;;;;;;;;;;6120188;23;20518;-59
2023/02/01 07:19:28;;;;;;;36.33;5.68;;;;;;;;;;6118971;23;20024;-66
2023/02/01 07:21:56;;;;;;;36.53;5.03;;;;;;;;;;6119343;23;20026;-52
2023/02/01 07:24:23;;;;;;;36.60;4.22;;;;;;;;;;6147765;23;20471;-52
2023/02/01 07:27:12;;;;;;;33.80;4.22;;;;;;;;;;6149167;23;20060;-53
2023/02/01 07:29:46;;;;;;;37.45;4.30;;;;;;;;;;6148772;23;20084;-56
2023/02/01 07:32:20;;;;;;;30.58;4.18;;;;;;;;;;6149684;23;20026;-54
2023/02/01 07:34:47;;;;;;;28.85;4.35;;;;;;;;;;6148278;23;20108;-50
2023/02/01 07:37:14;;;;;;;36.83;5.13;;;;;;;;;;6149570;23;20105;-55
2023/02/01 07:39:48;;;;;;;33.75;5.03;;;;;;;;;;6147699;23;20100;-52
2023/02/01 07:42:15;;;;;;;34.05;4.78;;;;;;;;;;6148574;23;20558;-52
2023/02/01 07:44:49;;;;;;;33.17;3.92;;;;;;;;;;6147604;23;20108;-52
2023/02/01 07:47:17;;;;;;;32.25;4.68;;;;;;;;;;6149318;23;20024;-52
2023/02/01 07:49:44;;;;;;;26.23;3.88;;;;;;;;;;6148725;23;20025;-53
2023/02/01 07:52:17;;;;;;;30.30;3.90;;;;;;;;;;6148944;23;20481;-54
2023/02/01 07:54:44;;;;;;;26.27;4.20;;;;;;;;;;6148166;23;20060;-53
2023/02/01 07:57:25;;;;;;;33.10;4.97;;;;;;;;;;6148569;23;20061;-54
2023/02/01 08:02:44;;;;;;;35.88;4.65;;;;;;;;;;6147851;23;20092;-57
2023/02/01 08:05:18;;;;;;;25.95;3.67;;;;;;;;;;6149223;23;20104;-55
2023/02/01 08:07:52;;;;;;;22.83;3.55;;;;;;;;;;6148678;23;20096;-56
2023/02/01 08:10:20;;;;;;;25.83;3.53;;;;;;;;;;6149273;23;20253;-56
2023/02/01 08:12:54;;;;;;;19.83;3.97;;;;;;;;;;6148215;23;20060;-57
2023/02/01 08:15:28;;;;;;;21.45;3.85;;;;;;;;;;6148587;23;20030;-62
2023/02/01 08:18:02;;;;;;;31.80;4.30;;;;;;;;;;6147578;23;20104;-53
2023/02/01 08:20:30;;;;;;;19.77;3.78;;;;;;;;;;6149339;23;20025;-59
2023/02/01 08:22:57;;;;;;;19.45;3.00;;;;;;;;;;6148387;23;20300;-58
2023/02/01 08:25:31;;;;;;;25.00;3.33;;;;;;;;;;6148868;23;20022;-59
2023/02/01 08:27:58;;;;;;;22.60;3.67;;;;;;;;;;6148093;23;20512;-60
2023/02/01 08:30:32;;;;;;;26.48;3.63;;;;;;;;;;6148794;23;20022;-59
2023/02/01 08:33:00;;;;;;;26.30;3.70;;;;;;;;;;6148225;23;20040;-59
2023/02/01 08:35:28;;;;;;;20.38;3.63;;;;;;;;;;6149720;23;20104;-66
2023/02/01 08:38:09;;;;;;;21.85;2.83;;;;;;;;;;6147933;23;20029;-62
2023/02/01 08:40:36;;;;;;;34.95;4.20;;;;;;;;;;6148004;23;20081;-61
2023/02/01 08:43:10;;;;;;;23.17;3.80;;;;;;;;;;6147849;23;20104;-62
2023/02/01 08:45:37;;;;;;;25.73;4.13;;;;;;;;;;6148014;23;20022;-61
2023/02/01 08:48:05;;;;;;;20.73;3.53;;;;;;;;;;6148115;23;20026;-61
2023/02/01 08:50:38;;;;;;;28.00;3.97;;;;;;;;;;6148827;23;20402;-62
2023/02/01 08:53:05;;;;;;;20.58;3.42;;;;;;;;;;6147900;23;20064;-58
2023/02/01 08:55:39;;;;;;;23.33;4.20;;;;;;;;;;6148393;23;20053;-55
2023/02/01 08:58:06;;;;;;;32.80;4.05;;;;;;;;;;6148037;23;20499;-58
2023/02/01 09:00:33;;;;;;;25.92;3.78;;;;;;;;;;6147730;23;20025;-58
2023/02/01 09:03:10;;;;;;;25.42;4.28;;;;;;;;;;6146985;23;20475;-55
2023/02/01 09:05:38;;;;;;;29.02;3.92;;;;;;;;;;6148653;23;20045;-59
2023/02/01 09:08:16;;;;;;;;;;;;;;;;;;6149124;23;20540;-55
2023/02/01 09:10:49;;;;;;;18.15;3.13;;;;;;;;;;6147232;23;19948;-57
2023/02/01 09:13:36;;;;;;;30.67;4.40;;;;;;;;;;6147577;23;20480;-53
2023/02/01 09:16:10;;;;;;;21.48;4.07;;;;;;;;;;6147623;23;20022;-72
2023/02/01 09:18:44;;;;;;;30.52;4.03;;;;;;;;;;6147001;23;20032;-72
2023/02/01 09:21:27;;;;;;;25.50;3.47;;;;;;;;;;6148251;23;20411;-72
2023/02/01 09:24:01;;;;;;;22.88;3.10;;;;;;;;;;6122944;23;20033;-72
2023/02/01 09:26:28;;;;;;;27.13;3.40;;;;;;;;;;6149808;23;20030;-72
2023/02/01 09:28:59;;;;;;;25.25;3.97;;;;;;;;;;6145802;23;20447;-72
2023/02/01 09:31:33;;;;;;;29.08;3.85;;;;;;;;;;6148342;23;20022;-58
2023/02/01 09:34:00;;;;;;;21.70;3.05;;;;;;;;;;6147210;23;20053;-53
2023/02/01 09:36:35;;;;;;;25.92;3.60;;;;;;;;;;6148286;23;20103;-54
2023/02/01 09:39:02;;;;;;;;;;;;;;;;;;6145743;23;20036;-59
2023/02/01 09:41:48;;;;;;;34.08;3.72;;;;;;;;;;6148775;23;19927;-58
2023/02/01 09:44:40;;;;;;;29.95;4.30;;;;;;;;;;6147802;23;20309;-55
2023/02/01 09:47:15;;;;;;;34.70;5.15;;;;;;;;;;6147538;23;20022;-59
2023/02/01 09:50:08;;;;;;;25.95;3.88;;;;;;;;;;6146943;23;20027;-55
2023/02/01 09:52:43;;;;;;;32.03;3.60;;;;;;;;;;6148398;23;20025;-56
2023/02/01 09:55:20;;;;;;;26.77;4.35;;;;;;;;;;6146225;23;20027;-54
2023/02/01 09:57:54;;;;;;;29.60;3.85;;;;;;;;;;6148312;23;20067;-54
2023/02/01 10:00:34;;;;;;;30.40;4.47;;;;;;;;;;6147256;23;20061;-54
2023/02/01 10:03:02;;;;;;;34.75;5.05;;;;;;;;;;6146706;23;20565;-57
2023/02/01 10:05:36;;;;;;;26.10;3.83;;;;;;;;;;6147228;23;20025;-56
2023/02/01 10:08:09;;;;;;;22.40;3.92;;;;;;;;;;6147448;23;20471;-54
2023/02/01 10:10:43;;;;;;;27.58;3.58;;;;;;;;;;6145680;23;20053;-62
2023/02/01 10:13:23;;;;;;;33.38;5.72;;;;;;;;;;6146902;23;20092;-54
2023/02/01 10:16:00;;;;;;;30.42;5.22;;;;;;;;;;6146274;23;20172;-52
2023/02/01 10:18:48;;;;;;;33.40;5.35;;;;;;;;;;6147964;23;20030;-59
2023/02/01 10:21:25;;;;;;;26.50;4.50;;;;;;;;;;6147251;23;20024;-58
2023/02/01 10:24:11;;;;;;;33.22;4.60;;;;;;;;;;6147699;23;20029;-55
2023/02/01 10:27:20;;;;;;;23.45;4.68;;;;;;;;;;6149721;23;20100;-59
2023/02/01 10:29:59;;;;;;;25.70;3.92;;;;;;;;;;6030506;23;20023;-58
2023/02/01 10:32:32;;;;;;;23.55;3.78;;;;;;;;;;6136916;23;20028;-61
2023/02/01 10:35:31;;;;;;;25.00;3.92;;;;;;;;;;6148827;23;20458;-61
2023/02/01 10:38:01;;;;;;;27.50;3.72;;;;;;;;;;6144160;23;20081;-61
2023/02/01 10:40:35;;;;;;;29.13;4.03;;;;;;;;;;6148972;23;20423;-61
2023/02/01 10:43:03;;;;;;;23.02;3.58;;;;;;;;;;6149769;23;20032;-61
2023/02/01 10:45:39;;;;;;;32.30;4.18;;;;;;;;;;6148455;23;20108;-61
2023/02/01 10:48:08;;;;;;;24.70;3.25;;;;;;;;;;6150211;23;20666;-58
2023/02/01 10:50:54;;;;;;;25.65;4.15;;;;;;;;;;6149468;23;20057;-58
2023/02/01 10:53:38;;;;;;;25.30;4.75;;;;;;;;;;6148476;23;20029;-50
2023/02/01 10:56:09;;;;;;;20.60;3.83;;;;;;;;;;6148950;23;20064;-49
2023/02/01 10:58:46;;;;;;;23.25;3.45;;;;;;;;;;6149410;23;20679;-50
2023/02/01 11:01:28;;;;;;;13.98;3.20;;;;;;;;;;6148327;23;20453;-51
2023/02/01 11:04:02;;;;;;;17.23;3.40;;;;;;;;;;6148072;23;20025;-55
2023/02/01 11:06:50;;;;;;;25.08;3.38;;;;;;;;;;6148913;23;20028;-62
2023/02/01 11:09:26;;;;;;;20.75;3.58;;;;;;;;;;6094648;23;20026;-57
2023/02/01 11:11:54;;;;;;;25.33;4.40;;;;;;;;;;6149686;23;20064;-70
2023/02/01 11:14:40;;;;;;;21.30;3.30;;;;;;;;;;6147366;23;20105;-70
2023/02/01 11:17:17;;;;;;;21.40;3.47;;;;;;;;;;6148764;23;20108;-70
2023/02/01 11:19:57;;;;;;;23.40;4.05;;;;;;;;;;6149554;23;20021;-70
2023/02/01 11:22:26;;;;;;;25.00;3.95;;;;;;;;;;6148514;23;20104;-70
2023/02/01 11:25:02;;;;;;;22.42;4.07;;;;;;;;;;6149367;23;20053;-70
2023/02/01 11:27:29;;;;;;;15.35;3.78;;;;;;;;;;6149107;23;20025;-54
2023/02/01 11:29:59;;;;;;;21.75;3.75;;;;;;;;;;6149656;23;20088;-58
2023/02/01 11:32:33;;;;;;;22.63;3.22;;;;;;;;;;6149142;23;20021;-57
2023/02/01 11:35:05;;;;;;;18.15;3.75;;;;;;;;;;6149214;23;20060;-59
2023/02/01 11:37:37;;;;;;;18.02;3.40;;;;;;;;;;6146929;23;20067;-58
2023/02/01 11:40:17;;;;;;;19.65;3.15;;;;;;;;;;6148660;23;20108;-56
2023/02/01 11:42:54;;;;;;;19.95;3.10;;;;;;;;;;6147517;23;20056;-59
2023/02/01 11:45:26;;;;;;;26.38;4.22;;;;;;;;;;6148273;23;20149;-66
2023/02/01 11:48:00;;;;;;;21.20;3.63;;;;;;;;;;6149523;23;20096;-50
2023/02/01 11:50:27;;;;;;;;;;;;;;;;;;6149286;23;20060;-59
2023/02/01 11:52:54;;;;;;;26.67;3.78;;;;;;;;;;6148203;23;20028;-60
2023/02/01 11:55:31;;;;;;;20.90;4.07;;;;;;;;;;6149327;23;20022;-59
2023/02/01 11:58:01;;;;;;;23.83;3.20;;;;;;;;;;6149281;23;20201;-59
2023/02/01 12:00:50;;;;;;;28.45;3.72;;;;;;;;;;6148710;23;20305;-58
2023/02/01 12:03:23;;;;;;;21.92;3.22;;;;;;;;;;6136127;23;20096;-58
2023/02/01 12:06:08;;;;;;;21.40;3.67;;;;;;;;;;6148866;23;20029;-53
2023/02/01 12:08:40;;;;;;;18.17;3.72;;;;;;;;;;6149148;23;20063;-57
2023/02/01 12:11:32;;;;;;;25.38;3.05;;;;;;;;;;6148326;23;20067;-57
2023/02/01 12:14:17;;;;;;;23.88;4.25;;;;;;;;;;6148415;23;20408;-57
2023/02/01 12:17:13;;;;;;;25.23;3.53;;;;;;;;;;6147561;23;20490;-56
2023/02/01 12:19:49;;;;;;;21.25;3.35;;;;;;;;;;6148567;23;20025;-57
2023/02/01 12:22:36;;;;;;;19.98;4.05;;;;;;;;;;6147982;23;20045;-57
2023/02/01 12:25:07;;;;;;;18.85;3.45;;;;;;;;;;6149007;23;20022;-66
2023/02/01 12:27:52;;;;;;;28.42;4.22;;;;;;;;;;6147665;23;20060;-52
2023/02/01 12:30:34;;;;;;;23.25;3.53;;;;;;;;;;6148779;23;20052;-56
2023/02/01 12:33:15;;;;;;;16.05;3.58;;;;;;;;;;6148695;23;20517;-57
2023/02/01 12:35:48;;;;;;;20.45;2.95;;;;;;;;;;6146461;23;20097;-57
2023/02/01 12:38:40;;;;;;;26.48;4.20;;;;;;;;;;6147761;23;20101;-59
2023/02/01 12:41:26;;;;;;;19.05;3.45;;;;;;;;;;6148736;23;20021;-59
2023/02/01 12:44:16;;;;;;;27.00;3.22;;;;;;;;;;6147639;23;20029;-69
2023/02/01 12:46:47;;;;;;;27.20;3.78;;;;;;;;;;6148682;23;20053;-55
2023/02/01 12:49:33;;;;;;;16.55;3.10;;;;;;;;;;6146931;23;20036;-57
2023/02/01 12:52:02;;;;;;;21.35;3.70;;;;;;;;;;6121371;23;20021;-55
2023/02/01 12:54:48;;;;;;;24.20;3.88;;;;;;;;;;6148228;23;20088;-56
2023/02/01 12:57:24;;;;;;;22.77;3.22;;;;;;;;;;6149371;23;20081;-55
2023/02/01 13:00:09;;;;;;;35.05;4.07;;;;;;;;;;6147804;23;20068;-53
2023/02/01 13:02:43;;;;;;;25.95;4.10;;;;;;;;;;6148274;23;20025;-59
2023/02/01 13:05:25;;;;;;;24.15;3.92;;;;;;;;;;6146826;23;20025;-58
2023/02/01 13:08:07;;;;;;;22.67;3.65;;;;;;;;;;6148252;23;20064;-57
2023/02/01 13:10:43;;;;;;;23.88;4.00;;;;;;;;;;6147245;23;20084;-55
2023/02/01 13:13:30;;;;;;;25.73;4.28;;;;;;;;;;6147963;23;20022;-59
2023/02/01 13:16:14;;;;;;;29.83;3.55;;;;;;;;;;6147739;23;20061;-60
2023/02/01 13:18:47;;;;;;;31.25;3.70;;;;;;;;;;6148134;23;20025;-60
2023/02/01 20:25:12;;;;;;;3.53;1.10;;;;;;;;;;5799444;22;8316245;-84
2023/02/01 20:27:46;;;;;;;2.00;1.20;;;;;;;;;;6145504;23;20029;-84
2023/02/01 20:30:18;;;;;;;4.07;1.10;;;;;;;;;;6145689;23;20028;-84
2023/02/01 20:32:53;;;;;;;1.38;0.88;;;;;;;;;;6147382;23;20026;-84
2023/02/01 20:35:20;;;;;;;3.80;1.52;;;;;;;;;;6147731;23;20028;-84
2023/02/01 20:37:49;;;;;;;1.30;0.85;;;;;;;;;;6144842;23;20541;-84
2023/02/01 20:40:22;;;;;;;1.38;1.10;;;;;;;;;;6146086;23;20503;-84
2023/02/01 20:42:49;;;;;;;1.48;1.00;;;;;;;;;;6145508;23;20096;-84
2023/02/01 20:45:17;;;;;;;1.27;1.08;;;;;;;;;;6143084;23;20462;-83
2023/02/01 20:47:54;;;;;;;3.53;1.05;;;;;;;;;;6144905;23;20391;-84
2023/02/01 20:50:21;;;;;;;2.25;1.05;;;;;;;;;;6146777;23;20105;-85
2023/02/01 20:52:54;;;;;;;3.55;0.85;;;;;;;;;;6146255;23;20033;-83
2023/02/01 20:55:23;;;;;;;1.55;0.98;;;;;;;;;;6146839;23;20080;-85
2023/02/01 20:57:52;;;;;;;1.63;0.90;;;;;;;;;;6144524;23;20482;-85
2023/02/01 21:00:26;;;;;;;1.80;0.88;;;;;;;;;;6146438;23;20041;-85
2023/02/01 21:02:54;;;;;;;1.13;0.93;;;;;;;;;;6145298;23;20083;-84
2023/02/01 21:05:38;;;;;;;1.20;1.10;;;;;;;;;;6146912;23;20105;-84
2023/02/01 21:08:06;;;;;;;;;;;;;;;;;;6147034;23;20025;-84
2023/02/01 21:10:39;;;;;;;2.47;0.90;;;;;;;;;;6146859;23;20257;-85
2023/02/01 21:13:07;;;;;;;1.20;0.90;;;;;;;;;;6147203;23;20080;-84
2023/02/01 21:15:35;;;;;;;;;;;;;;;;;;6146002;23;20031;-85
2023/02/01 21:18:10;;;;;;;1.55;1.15;;;;;;;;;;6148088;23;19927;-85
2023/02/01 21:20:37;;;;;;;2.08;1.17;;;;;;;;;;6143666;23;20471;-85
2023/02/01 21:23:24;;;;;;;4.13;1.88;;;;;;;;;;6148817;23;20156;-83
2023/02/01 21:26:01;;;;;;;2.35;1.35;;;;;;;;;;6176224;23;20031;-83
2023/02/01 21:28:36;;;;;;;2.93;1.30;;;;;;;;;;6174667;23;20100;-84
2023/02/01 21:31:03;;;;;;;;;;;;;;;;;;6149254;23;20021;-85
2023/02/01 21:33:30;;;;;;;2.70;1.58;;;;;;;;;;6148842;23;19986;-84
2023/02/01 21:36:05;;;;;;;3.25;1.33;;;;;;;;;;6176195;23;20108;-83
2023/02/01 21:38:33;;;;;;;1.33;0.90;;;;;;;;;;6174548;23;20478;-84
2023/02/01 21:43:54;;;;;;;2.47;1.25;;;;;;;;;;6177079;23;20021;-84
2023/02/01 21:46:28;;;;;;;1.83;1.15;;;;;;;;;;6177506;23;20028;-84
2023/02/01 21:48:55;;;;;;;1.35;1.08;;;;;;;;;;6177158;23;20104;-84
2023/02/01 21:51:34;;;;;;;1.80;1.17;;;;;;;;;;6177697;23;20463;-85
2023/02/01 21:54:08;;;;;;;3.53;1.25;;;;;;;;;;6177956;23;20052;-84
2023/02/01 21:56:36;;;;;;;1.48;0.90;;;;;;;;;;6177775;23;20053;-85
2023/02/01 21:59:04;;;;;;;2.22;1.00;;;;;;;;;;6149230;23;20032;-85
2023/02/01 22:01:38;;;;;;;2.42;1.20;;;;;;;;;;6176326;23;20478;-87
2023/02/01 22:04:06;;;;;;;1.70;1.00;;;;;;;;;;6176681;23;20462;-85
2023/02/01 22:06:35;;;;;;;4.05;1.10;;;;;;;;;;6177554;23;20125;-85
2023/02/01 22:09:14;;;;;;;3.75;0.90;;;;;;;;;;6178903;23;20096;-84
2023/02/01 22:11:49;;;;;;;1.88;1.08;;;;;;;;;;6180184;23;20029;-85
2023/02/01 22:14:17;;;;;;;2.63;1.33;;;;;;;;;;6179510;23;20923;-85
2023/02/01 22:16:44;;;;;;;1.75;0.98;;;;;;;;;;6154528;23;20091;-85
2023/02/01 22:19:18;;;;;;;2.55;0.77;;;;;;;;;;6180265;23;20035;-85
2023/02/01 22:21:45;;;;;;;;;;;;;;;;;;6178843;23;20488;-85
2023/02/01 22:24:33;;;;;;;1.77;1.08;;;;;;;;;;6177883;23;19951;-84
2023/02/01 22:27:06;;;;;;;2.38;0.90;;;;;;;;;;6179652;23;20029;-86
2023/02/01 22:29:41;;;;;;;1.40;0.90;;;;;;;;;;6179379;23;20536;-85
2023/02/01 22:32:08;;;;;;;1.13;0.80;;;;;;;;;;6153728;23;20021;-85
2023/02/01 22:34:36;;;;;;;1.90;1.45;;;;;;;;;;6180392;23;20031;-85
2023/02/01 22:37:09;;;;;;;2.38;1.02;;;;;;;;;;6178025;23;20390;-85
2023/02/01 22:39:38;;;;;;;1.40;0.80;;;;;;;;;;6180000;23;20104;-84
2023/02/01 22:42:05;;;;;;;4.82;0.93;;;;;;;;;;6178275;23;20735;-85
2023/02/01 22:44:38;;;;;;;2.53;1.20;;;;;;;;;;6179778;23;20120;-86